Time;durP1;ratioP1;P1;durP2;ratioP2;P2;SDS_P1;SDS_P2;PMS_P1;PMS_P2;Temp;Humidity;BMP_temperature;BMP_pressure;BME280_temperature;BME280_humidity;BME280_pressure;Samples;Min_cycle;Max_cycle;Signal;HPM_P1;HPM_P2
2023/01/11 00:00:27;;;;;;;13.00;7.77;;;5.60;1.00;;;;;;5045811;28;20260;-57
2023/01/11 00:03:00;;;;;;;11.10;7.40;;;5.60;1.00;;;;;;5044083;28;20205;-53
2023/01/11 00:05:26;;;;;;;12.57;7.50;;;5.70;1.00;;;;;;5046142;28;20190;-55
2023/01/11 00:07:52;;;;;;;10.97;6.60;;;5.70;1.00;;;;;;5045895;28;20452;-53
2023/01/11 00:10:18;;;;;;;11.97;7.73;;;5.60;1.00;;;;;;5042557;28;20437;-53
2023/01/11 00:12:44;;;;;;;14.47;7.40;;;5.70;1.00;;;;;;5039839;28;20186;-53
2023/01/11 00:15:11;;;;;;;8.97;6.10;;;5.70;1.00;;;;;;5038453;28;20466;-53
2023/01/11 00:17:37;;;;;;;8.57;6.77;;;5.70;1.00;;;;;;5045260;28;20505;-53
2023/01/11 00:20:03;;;;;;;8.30;5.50;;;5.60;1.00;;;;;;5042381;28;20446;-53
2023/01/11 00:22:28;;;;;;;9.40;6.77;;;5.60;1.00;;;;;;5037219;28;20298;-53
2023/01/11 00:24:54;;;;;;;9.57;7.23;;;5.70;1.00;;;;;;5049092;28;20458;-53
2023/01/11 00:27:20;;;;;;;11.10;6.47;;;5.70;1.00;;;;;;5046991;28;20241;-53
2023/01/11 00:29:45;;;;;;;9.30;6.20;;;5.70;1.00;;;;;;5046481;28;20190;-54
2023/01/11 00:32:11;;;;;;;16.20;5.87;;;5.60;1.00;;;;;;5038529;28;20192;-53
2023/01/11 00:34:37;;;;;;;9.10;6.00;;;5.60;1.00;;;;;;5040276;28;20266;-53
2023/01/11 00:37:03;;;;;;;7.27;5.90;;;5.60;1.00;;;;;;5037351;28;20347;-53
2023/01/11 00:39:29;;;;;;;11.63;5.50;;;5.50;1.00;;;;;;5037028;28;20204;-54
2023/01/11 00:50:07;;;;;;;6.43;4.00;;;5.60;1.00;;;;;;5046214;28;20939;-54
2023/01/11 00:52:33;;;;;;;9.13;4.63;;;5.60;1.00;;;;;;5042390;28;20502;-56
2023/01/11 00:54:58;;;;;;;6.83;4.30;;;5.60;1.00;;;;;;5046449;28;20464;-52
2023/01/11 00:57:24;;;;;;;4.60;4.20;;;5.60;1.00;;;;;;5043421;28;20212;-55
2023/01/11 00:59:49;;;;;;;6.43;4.20;;;5.70;1.00;;;;;;5045379;28;20746;-52
2023/01/11 01:02:15;;;;;;;8.67;4.10;;;5.80;1.00;;;;;;5045164;28;20225;-52
2023/01/11 01:04:41;;;;;;;6.50;3.80;;;5.70;1.00;;;;;;5047947;28;20187;-55
2023/01/11 01:07:07;;;;;;;4.67;4.07;;;6.50;1.00;;;;;;5043627;28;20194;-55
2023/01/11 01:09:32;;;;;;;5.27;4.50;;;5.70;1.00;;;;;;5043361;28;20321;-52
2023/01/11 01:12:00;;;;;;;12.90;4.53;;;5.80;1.00;;;;;;5044234;28;20448;-54
2023/01/11 01:14:29;;;;;;;5.03;3.70;;;5.80;1.00;;;;;;5042332;28;20555;-53
2023/01/11 01:17:01;;;;;;;4.90;3.00;;;5.90;1.00;;;;;;5043819;28;20510;-53
2023/01/11 01:19:27;;;;;;;8.67;4.80;;;5.80;1.00;;;;;;5048466;28;20452;-53
2023/01/11 01:21:57;;;;;;;6.80;3.93;;;5.90;1.00;;;;;;5044830;28;20463;-53
2023/01/11 01:24:24;;;;;;;9.60;4.40;;;6.10;1.00;;;;;;5045750;28;20453;-52
2023/01/11 01:26:50;;;;;;;6.40;3.47;;;6.20;1.00;;;;;;5048432;28;20450;-52
2023/01/11 01:29:16;;;;;;;7.30;3.97;;;6.30;1.00;;;;;;5044583;28;20462;-56
2023/01/11 01:31:42;;;;;;;6.23;3.50;;;6.30;1.00;;;;;;5050472;28;20456;-53
2023/01/11 01:34:09;;;;;;;8.33;3.43;;;6.40;1.00;;;;;;5048494;28;20478;-53
2023/01/11 01:36:35;;;;;;;5.03;3.40;;;6.40;1.00;;;;;;5048465;28;20454;-52
2023/01/11 01:39:02;;;;;;;8.40;4.20;;;6.30;1.00;;;;;;5047577;28;20494;-53
2023/01/11 01:41:28;;;;;;;4.53;3.00;;;6.30;1.00;;;;;;5045900;28;20233;-55
2023/01/11 01:44:02;;;;;;;6.20;3.43;;;6.30;1.00;;;;;;5044998;28;20484;-53
2023/01/11 01:46:31;;;;;;;9.20;2.87;;;6.30;1.00;;;;;;5047283;28;20213;-51
2023/01/11 01:49:07;;;;;;;3.93;3.13;;;6.40;1.00;;;;;;5053482;28;20490;-54
2023/01/11 01:51:45;;;;;;;3.97;2.80;;;6.30;1.00;;;;;;5048552;28;20448;-54
2023/01/11 01:54:17;;;;;;;6.00;2.90;;;6.30;1.00;;;;;;5042614;28;20454;-55
2023/01/11 01:56:50;;;;;;;7.47;3.33;;;6.40;1.00;;;;;;5045465;28;20963;-53
2023/01/11 01:59:18;;;;;;;6.00;3.77;;;6.50;1.00;;;;;;5049892;28;20466;-52
2023/01/11 02:01:47;;;;;;;3.70;3.23;;;6.40;1.00;;;;;;5049476;28;20486;-53
2023/01/11 02:04:24;;;;;;;4.70;3.30;;;6.40;1.00;;;;;;5050186;28;20451;-54
2023/01/11 02:06:55;;;;;;;5.20;3.60;;;6.40;1.00;;;;;;5051582;28;20455;-54
2023/01/11 02:09:30;;;;;;;6.50;4.00;;;6.30;1.00;;;;;;5051246;28;20538;-54
2023/01/11 02:11:57;;;;;;;7.00;4.50;;;6.40;1.00;;;;;;5051884;28;20924;-53
2023/01/11 02:14:24;;;;;;;14.37;4.40;;;6.40;1.00;;;;;;5048888;28;21064;-53
2023/01/11 02:16:49;;;;;;;6.40;4.63;;;6.30;1.00;;;;;;5044087;28;20461;-53
2023/01/11 02:19:49;;;;;;;4.63;4.10;;;6.40;1.00;;;;;;5037713;28;20560;-54
2023/01/11 02:22:54;;;;;;;7.20;4.43;;;6.20;1.00;;;;;;5042602;28;20241;-54
2023/01/11 02:25:39;;;;;;;5.60;4.27;;;6.30;1.00;;;;;;5040221;28;21050;-54
2023/01/11 02:28:21;;;;;;;6.80;4.17;;;6.40;1.00;;;;;;5040057;28;20951;-53
2023/01/11 02:31:15;;;;;;;8.33;4.00;;;6.50;1.00;;;;;;5039467;28;20439;-54
2023/01/11 02:34:08;;;;;;;6.27;4.07;;;6.40;1.00;;;;;;5039203;28;20452;-52
2023/01/11 02:36:47;;;;;;;7.60;4.40;;;6.40;1.00;;;;;;5040774;28;20502;-52
2023/01/11 02:39:27;;;;;;;10.00;4.10;;;6.50;1.00;;;;;;5046477;28;20471;-53
2023/01/11 02:45:24;;;;;;;9.80;4.73;;;6.50;1.00;;;;;;5047104;28;20446;-53
2023/01/11 02:47:55;;;;;;;7.90;4.20;;;6.50;1.00;;;;;;5049961;28;20459;-52
2023/01/11 02:50:31;;;;;;;5.50;3.70;;;6.50;1.00;;;;;;5048542;28;21001;-53
2023/01/11 02:53:43;;;;;;;5.80;3.87;;;6.50;1.00;;;;;;5048865;28;20473;-55
2023/01/11 02:56:18;;;;;;;5.40;4.33;;;6.50;1.00;;;;;;5002219;28;20500;-54
2023/01/11 02:58:46;;;;;;;5.80;4.20;;;6.50;1.00;;;;;;5042150;28;20459;-52
2023/01/11 03:01:13;;;;;;;7.70;3.80;;;6.50;1.00;;;;;;5046184;28;20457;-55
2023/01/11 03:03:38;;;;;;;4.80;3.47;;;6.50;1.00;;;;;;5049802;28;20855;-53
2023/01/11 03:06:12;;;;;;;3.70;3.23;;;6.60;1.00;;;;;;5045376;28;20451;-53
2023/01/11 03:08:50;;;;;;;10.83;4.03;;;7.40;1.00;;;;;;5048335;28;20212;-55
2023/01/11 03:14:39;;;;;;;4.97;3.40;;;6.60;1.00;;;;;;5046511;28;20443;-51
2023/01/11 03:17:16;;;;;;;4.80;3.30;;;6.60;1.00;;;;;;5049932;28;20490;-53
2023/01/11 03:19:52;;;;;;;9.40;3.63;;;6.60;1.00;;;;;;5049150;28;20956;-56
2023/01/11 03:22:54;;;;;;;6.40;3.50;;;6.80;1.00;;;;;;5049254;28;20475;-54
2023/01/11 03:25:29;;;;;;;4.07;3.03;;;6.90;1.00;;;;;;5038736;28;20459;-52
2023/01/11 03:28:08;;;;;;;5.90;3.80;;;6.80;1.00;;;;;;5048565;28;20450;-52
2023/01/11 03:30:42;;;;;;;9.77;3.57;;;6.90;1.00;;;;;;5050382;28;20482;-54
2023/01/11 03:33:15;;;;;;;5.73;3.77;;;6.80;1.00;;;;;;5047280;28;20452;-52
2023/01/11 03:36:10;;;;;;;6.70;3.30;;;6.80;1.00;;;;;;5044605;28;20456;-53
2023/01/11 03:38:50;;;;;;;8.57;3.77;;;6.80;1.00;;;;;;5031383;28;20974;-53
2023/01/11 03:41:21;;;;;;;8.07;3.80;;;6.80;1.00;;;;;;5040315;28;20901;-54
2023/01/11 03:43:50;;;;;;;4.30;3.17;;;6.80;1.00;;;;;;5046465;28;20504;-53
2023/01/11 03:46:22;;;;;;;5.00;3.30;;;6.80;1.00;;;;;;5049410;28;20449;-55
2023/01/11 03:48:51;;;;;;;6.60;3.60;;;6.80;1.00;;;;;;5046890;28;20499;-55
2023/01/11 03:51:21;;;;;;;4.53;3.03;;;6.80;1.00;;;;;;5045827;28;20450;-55
2023/01/11 03:53:49;;;;;;;4.37;3.20;;;6.80;1.00;;;;;;5047872;28;20528;-54
2023/01/11 03:56:20;;;;;;;7.73;3.30;;;6.80;1.00;;;;;;5044235;28;20473;-53
2023/01/11 03:58:45;;;;;;;6.07;4.27;;;6.90;1.00;;;;;;5047479;28;20444;-53
2023/01/11 04:01:12;;;;;;;6.70;3.47;;;6.90;1.00;;;;;;5049393;28;20440;-53
2023/01/11 04:03:37;;;;;;;4.00;3.27;;;6.90;1.00;;;;;;5047561;28;20264;-54
2023/01/11 04:06:03;;;;;;;4.97;3.20;;;6.90;1.00;;;;;;5043930;28;20594;-53
2023/01/11 04:08:30;;;;;;;7.70;3.50;;;6.90;1.00;;;;;;5041795;28;20241;-55
2023/01/11 04:10:56;;;;;;;7.60;3.30;;;6.80;1.00;;;;;;5042492;28;20451;-56
2023/01/11 04:13:21;;;;;;;6.83;3.20;;;6.80;1.00;;;;;;5037428;28;20456;-53
2023/01/11 04:15:47;;;;;;;4.90;3.40;;;6.80;1.00;;;;;;5039703;28;20987;-52
2023/01/11 04:18:12;;;;;;;5.10;3.50;;;6.80;1.00;;;;;;5039072;28;20197;-54
2023/01/11 04:20:39;;;;;;;6.70;2.73;;;6.90;1.00;;;;;;5037663;28;20193;-55
2023/01/11 04:23:07;;;;;;;5.40;3.40;;;6.80;1.00;;;;;;5037599;28;20210;-52
2023/01/11 04:25:33;;;;;;;5.57;3.10;;;6.90;1.00;;;;;;5037166;28;20811;-54
2023/01/11 04:27:59;;;;;;;3.90;3.10;;;6.90;1.00;;;;;;5036067;28;20521;-55
2023/01/11 04:30:24;;;;;;;6.13;3.40;;;6.90;1.00;;;;;;5039024;28;20470;-55
2023/01/11 04:32:50;;;;;;;4.53;3.13;;;7.00;1.00;;;;;;5052731;28;20490;-54
2023/01/11 04:35:16;;;;;;;6.23;3.20;;;6.90;1.00;;;;;;5036308;28;20530;-53
2023/01/11 04:37:42;;;;;;;7.23;2.90;;;6.90;1.00;;;;;;5039497;28;20644;-55
2023/01/11 04:40:08;;;;;;;5.00;3.13;;;7.00;1.00;;;;;;5041400;28;20443;-55
2023/01/11 04:42:34;;;;;;;4.43;3.00;;;7.10;1.00;;;;;;5046529;28;20270;-54
2023/01/11 04:45:00;;;;;;;4.00;3.50;;;7.10;1.00;;;;;;5046696;28;20871;-54
2023/01/11 04:47:25;;;;;;;7.73;3.23;;;7.10;1.00;;;;;;5042757;28;20192;-55
2023/01/11 04:49:51;;;;;;;4.50;3.13;;;7.10;1.00;;;;;;5046914;28;20622;-53
2023/01/11 04:52:19;;;;;;;5.20;3.23;;;7.20;1.00;;;;;;5046894;28;20242;-53
2023/01/11 04:54:45;;;;;;;5.53;2.90;;;7.30;1.00;;;;;;5042262;28;20221;-56
2023/01/11 04:57:15;;;;;;;3.90;3.50;;;7.30;1.00;;;;;;5046496;28;20463;-55
2023/01/11 04:59:40;;;;;;;5.63;2.60;;;7.20;1.00;;;;;;5045403;28;20447;-53
2023/01/11 05:02:06;;;;;;;7.50;3.30;;;7.20;1.00;;;;;;5047159;28;20996;-55
2023/01/11 05:04:32;;;;;;;4.63;2.80;;;7.30;1.00;;;;;;5046392;28;20315;-53
2023/01/11 05:06:58;;;;;;;4.30;2.60;;;7.20;1.00;;;;;;5043637;28;20181;-54
2023/01/11 05:09:23;;;;;;;5.90;2.93;;;7.30;1.00;;;;;;5045981;28;20961;-55
2023/01/11 05:11:49;;;;;;;4.73;3.20;;;7.20;1.00;;;;;;5048120;28;20547;-55
2023/01/11 05:14:16;;;;;;;4.60;3.23;;;7.30;1.00;;;;;;5053673;28;20198;-67
2023/01/11 05:16:42;;;;;;;9.17;3.40;;;7.40;1.00;;;;;;5046309;28;20671;-54
2023/01/11 05:19:10;;;;;;;4.87;2.77;;;7.40;1.00;;;;;;5047394;28;20462;-56
2023/01/11 05:21:38;;;;;;;5.83;3.03;;;7.50;1.00;;;;;;5047515;28;20469;-53
2023/01/11 05:24:07;;;;;;;4.80;3.10;;;7.50;1.00;;;;;;5048042;28;20434;-52
2023/01/11 05:26:35;;;;;;;6.30;3.43;;;7.50;1.00;;;;;;5047902;28;20464;-54
2023/01/11 05:29:04;;;;;;;5.20;2.90;;;7.40;1.00;;;;;;5047710;28;20451;-54
2023/01/11 05:31:31;;;;;;;4.13;3.00;;;7.50;1.00;;;;;;5047265;28;20463;-54
2023/01/11 05:33:57;;;;;;;4.03;2.87;;;7.60;1.00;;;;;;5049136;28;20465;-52
2023/01/11 05:36:24;;;;;;;7.90;3.83;;;7.60;1.00;;;;;;5056575;28;20460;-53
2023/01/11 05:38:51;;;;;;;7.87;3.37;;;7.70;1.00;;;;;;5051688;28;20455;-53
2023/01/11 05:41:19;;;;;;;4.00;3.20;;;7.70;1.00;;;;;;5051865;28;21123;-54
2023/01/11 05:46:32;;;;;;;6.13;3.00;;;7.70;1.00;;;;;;5050921;28;20449;-54
2023/01/11 05:48:58;;;;;;;5.83;3.20;;;7.70;1.00;;;;;;5050323;28;20479;-53
2023/01/11 05:51:24;;;;;;;4.07;3.03;;;7.70;1.00;;;;;;5051553;28;20859;-52
2023/01/11 05:53:51;;;;;;;5.00;3.07;;;7.60;1.00;;;;;;5052495;28;20550;-55
2023/01/11 05:56:18;;;;;;;3.97;2.73;;;7.60;1.00;;;;;;5051230;28;20538;-55
2023/01/11 05:58:47;;;;;;;5.93;3.30;;;7.60;1.00;;;;;;5051704;28;20459;-55
2023/01/11 06:01:13;;;;;;;5.03;3.00;;;7.50;1.00;;;;;;5052013;28;20466;-54
2023/01/11 06:03:39;;;;;;;5.40;3.37;;;7.50;1.00;;;;;;5051614;28;20524;-54
2023/01/11 06:06:05;;;;;;;4.60;2.63;;;7.50;1.00;;;;;;5050332;28;20850;-54
2023/01/11 06:08:31;;;;;;;3.87;2.80;;;7.40;1.00;;;;;;5051211;28;20193;-55
2023/01/11 06:10:56;;;;;;;3.93;2.50;;;7.40;1.00;;;;;;5057688;28;20480;-54
2023/01/11 06:13:26;;;;;;;4.40;2.73;;;7.50;1.00;;;;;;5055754;28;20200;-54
2023/01/11 06:15:59;;;;;;;4.53;2.70;;;7.50;1.00;;;;;;5055437;28;20200;-54
2023/01/11 06:18:26;;;;;;;9.03;4.10;;;7.60;1.00;;;;;;5051766;28;20439;-52
2023/01/11 06:20:53;;;;;;;9.20;3.93;;;7.60;1.00;;;;;;5051139;28;20451;-56
2023/01/11 06:23:19;;;;;;;6.37;3.93;;;7.60;1.00;;;;;;5052896;28;20474;-55
2023/01/11 06:25:45;;;;;;;6.50;3.00;;;7.70;1.00;;;;;;5050262;28;20454;-55
2023/01/11 06:28:11;;;;;;;6.10;3.53;;;7.70;1.00;;;;;;5050815;28;20434;-52
2023/01/11 06:30:37;;;;;;;4.50;2.87;;;7.80;1.00;;;;;;5051344;28;20941;-53
2023/01/11 06:33:06;;;;;;;5.37;3.07;;;7.80;1.00;;;;;;5049218;28;20247;-53
2023/01/11 06:35:38;;;;;;;3.00;2.70;;;7.80;1.00;;;;;;5051271;28;20458;-54
2023/01/11 06:38:08;;;;;;;4.13;3.63;;;7.90;1.00;;;;;;5049172;28;20500;-54
2023/01/11 06:40:34;;;;;;;3.63;3.13;;;7.80;1.00;;;;;;5045150;28;20444;-53
2023/01/11 06:43:00;;;;;;;4.70;3.30;;;7.90;1.00;;;;;;5049430;28;20530;-54
2023/01/11 06:45:25;;;;;;;7.27;3.37;;;7.80;1.00;;;;;;5050656;28;20447;-53
2023/01/11 06:47:51;;;;;;;5.47;3.20;;;7.80;1.00;;;;;;5061379;28;20704;-53
2023/01/11 06:50:17;;;;;;;5.60;3.10;;;7.80;1.00;;;;;;5067270;28;20222;-54
2023/01/11 06:52:42;;;;;;;11.50;3.50;;;7.80;1.00;;;;;;5051560;28;20546;-53
2023/01/11 06:55:08;;;;;;;5.13;3.30;;;7.80;1.00;;;;;;5050761;28;20185;-53
2023/01/11 06:57:35;;;;;;;4.87;3.10;;;7.80;1.00;;;;;;5049866;28;20233;-53
2023/01/11 07:00:02;;;;;;;6.53;3.23;;;7.80;1.00;;;;;;5049170;28;20579;-56
2023/01/11 07:02:28;;;;;;;4.93;3.00;;;7.80;1.00;;;;;;5050576;28;20305;-54
2023/01/11 07:04:53;;;;;;;8.90;3.00;;;7.90;1.00;;;;;;5050572;28;20510;-54
2023/01/11 07:07:19;;;;;;;5.47;3.57;;;7.90;1.00;;;;;;5051219;28;20205;-54
2023/01/11 07:09:44;;;;;;;4.40;2.93;;;7.80;1.00;;;;;;5049845;28;20186;-54
2023/01/11 07:12:10;;;;;;;10.23;3.30;;;7.80;1.00;;;;;;5053766;28;20193;-55
2023/01/11 07:14:35;;;;;;;4.00;3.53;;;7.80;1.00;;;;;;5050337;28;20269;-56
2023/01/11 07:17:01;;;;;;;7.83;4.57;;;8.00;1.00;;;;;;5049800;28;20194;-54
2023/01/11 07:19:27;;;;;;;9.33;3.17;;;7.80;1.00;;;;;;5050633;28;20219;-53
2023/01/11 07:21:52;;;;;;;5.50;3.50;;;7.90;1.00;;;;;;5050113;28;20273;-53
2023/01/11 07:24:19;;;;;;;7.30;3.40;;;7.90;1.00;;;;;;5051199;28;20198;-53
2023/01/11 07:26:44;;;;;;;5.10;3.50;;;7.90;1.00;;;;;;5050109;28;20277;-55
2023/01/11 07:29:10;;;;;;;7.17;3.20;;;7.90;1.00;;;;;;5049055;28;20538;-54
2023/01/11 07:31:35;;;;;;;6.97;3.57;;;8.00;1.00;;;;;;5049579;28;20248;-55
2023/01/11 07:34:02;;;;;;;4.80;3.20;;;7.90;1.00;;;;;;5050337;28;20200;-52
2023/01/11 07:36:34;;;;;;;5.47;3.67;;;7.90;1.00;;;;;;5050200;28;20197;-55
2023/01/11 07:39:00;;;;;;;4.37;2.93;;;7.80;1.00;;;;;;5050606;28;20550;-52
2023/01/11 07:44:10;;;;;;;4.10;2.90;;;7.80;1.00;;;;;;5047363;28;20212;-55
2023/01/11 07:46:35;;;;;;;3.70;2.87;;;7.80;1.00;;;;;;5049547;28;20451;-53
2023/01/11 07:49:01;;;;;;;5.37;3.20;;;7.90;1.00;;;;;;5049158;28;20226;-52
2023/01/11 07:51:26;;;;;;;5.80;3.13;;;7.80;1.00;;;;;;5049888;28;20576;-54
2023/01/11 07:53:52;;;;;;;4.57;3.43;;;7.80;1.00;;;;;;5050827;28;20193;-53
2023/01/11 07:56:17;;;;;;;4.27;2.70;;;7.90;1.00;;;;;;5049066;28;20201;-53
2023/01/11 07:58:43;;;;;;;3.77;3.20;;;7.90;1.00;;;;;;5047898;28;20186;-54
2023/01/11 08:01:09;;;;;;;5.37;3.57;;;7.90;1.00;;;;;;5048306;28;20217;-53
2023/01/11 08:03:34;;;;;;;4.80;3.50;;;7.90;1.00;;;;;;5049883;28;20791;-52
2023/01/11 08:06:00;;;;;;;3.37;2.97;;;8.10;1.00;;;;;;5049670;28;20178;-53
2023/01/11 08:08:25;;;;;;;3.90;2.77;;;8.10;1.00;;;;;;5048805;28;20186;-55
2023/01/11 08:14:37;;;;;;;4.53;2.57;;;8.10;1.00;;;;;;5049514;28;20178;-55
2023/01/11 08:16:21;;;;;;;6.83;3.37;;;8.30;1.00;;;;;;5048453;28;20462;-55
2023/01/11 08:18:50;;;;;;;4.90;2.70;;;8.40;1.00;;;;;;5049421;28;20436;-54
2023/01/11 08:21:16;;;;;;;6.03;2.83;;;8.40;1.00;;;;;;5049121;28;20430;-54
2023/01/11 08:23:41;;;;;;;5.73;3.33;;;8.50;1.00;;;;;;5047791;28;20456;-53
2023/01/11 08:26:07;;;;;;;12.17;3.33;;;8.60;1.00;;;;;;5047848;28;20460;-53
2023/01/11 08:28:33;;;;;;;4.57;3.47;;;8.60;1.00;;;;;;5050078;28;20212;-55
2023/01/11 08:30:59;;;;;;;5.43;2.77;;;8.60;1.00;;;;;;5049560;28;20973;-54
2023/01/11 08:33:24;;;;;;;4.73;2.53;;;8.70;1.00;;;;;;5048856;28;20191;-54
2023/01/11 08:35:50;;;;;;;2.83;2.40;;;8.80;1.00;;;;;;5048907;28;20189;-53
2023/01/11 08:38:15;;;;;;;6.33;2.53;;;8.80;1.00;;;;;;5049187;28;20658;-53
2023/01/11 08:40:41;;;;;;;4.03;2.60;;;8.80;1.00;;;;;;5048057;28;20229;-55
2023/01/11 08:43:07;;;;;;;5.40;3.23;;;8.80;1.00;;;;;;5049698;28;20239;-53
2023/01/11 08:45:33;;;;;;;6.60;2.90;;;8.90;1.00;;;;;;5049308;28;20188;-54
2023/01/11 08:47:59;;;;;;;4.20;2.93;;;8.80;1.00;;;;;;5048989;28;20190;-56
2023/01/11 08:50:24;;;;;;;3.77;3.00;;;8.90;1.00;;;;;;5054667;28;20866;-54
2023/01/11 08:52:50;;;;;;;4.77;3.17;;;8.90;1.00;;;;;;5052215;28;20447;-54
2023/01/11 08:55:16;;;;;;;3.23;2.80;;;8.90;1.00;;;;;;5047524;28;20200;-53
2023/01/11 08:57:42;;;;;;;8.30;3.20;;;8.90;1.00;;;;;;5048463;28;20788;-54
2023/01/11 09:00:08;;;;;;;8.87;3.33;;;8.90;1.00;;;;;;5048342;28;20193;-55
2023/01/11 09:02:34;;;;;;;6.57;4.13;;;9.00;1.00;;;;;;5048751;28;20268;-53
2023/01/11 09:04:59;;;;;;;3.67;2.73;;;9.10;1.00;;;;;;5051197;28;20443;-54
2023/01/11 09:07:25;;;;;;;7.87;3.10;;;9.00;1.00;;;;;;5053071;28;20187;-55
2023/01/11 09:09:51;;;;;;;5.80;3.20;;;9.10;1.00;;;;;;5048950;28;20214;-53
2023/01/11 09:12:17;;;;;;;3.57;3.27;;;9.10;1.00;;;;;;5049258;28;20803;-54
2023/01/11 09:14:42;;;;;;;3.53;3.23;;;9.20;1.00;;;;;;5063464;28;20731;-52
2023/01/11 09:17:08;;;;;;;4.33;3.40;;;9.20;1.00;;;;;;5048786;28;20432;-54
2023/01/11 09:19:34;;;;;;;5.23;2.90;;;9.30;1.00;;;;;;5047392;28;20191;-55
2023/01/11 09:22:01;;;;;;;5.80;4.03;;;9.30;1.00;;;;;;5049230;28;20308;-53
2023/01/11 09:24:28;;;;;;;4.77;3.30;;;9.30;1.00;;;;;;5049279;28;20178;-55
2023/01/11 09:26:56;;;;;;;6.33;3.20;;;9.40;1.00;;;;;;5048743;28;20429;-54
2023/01/11 09:29:22;;;;;;;9.27;4.07;;;9.30;1.00;;;;;;5049032;28;20888;-55
2023/01/11 09:31:48;;;;;;;6.53;3.60;;;9.30;1.00;;;;;;5048174;28;21031;-55
2023/01/11 09:34:14;;;;;;;6.73;3.30;;;9.30;1.00;;;;;;5049714;28;20187;-53
2023/01/11 09:36:39;;;;;;;5.40;3.20;;;9.30;1.00;;;;;;5069313;28;20235;-53
2023/01/11 09:39:09;;;;;;;3.63;2.80;;;9.40;1.00;;;;;;5055793;28;20824;-55
2023/01/11 09:42:30;;;;;;;4.00;3.10;;;9.50;1.00;;;;;;5048140;28;20186;-55
2023/01/11 09:45:04;;;;;;;4.60;3.60;;;9.50;1.00;;;;;;5010471;28;20529;-55
2023/01/11 09:47:47;;;;;;;9.10;3.33;;;9.50;1.00;;;;;;5058796;28;20444;-53
2023/01/11 09:50:22;;;;;;;4.73;2.87;;;9.60;1.00;;;;;;5048305;28;20517;-54
2023/01/11 09:52:52;;;;;;;3.57;2.67;;;9.80;1.00;;;;;;5047411;28;20450;-54
2023/01/11 09:55:24;;;;;;;8.63;3.20;;;9.70;1.00;;;;;;5051510;28;20443;-54
2023/01/11 09:57:59;;;;;;;3.90;3.17;;;9.80;1.00;;;;;;5047166;28;20435;-54
2023/01/11 10:00:44;;;;;;;5.50;3.00;;;9.70;1.00;;;;;;5047936;28;20457;-54
2023/01/11 10:03:15;;;;;;;3.40;3.00;;;9.70;1.00;;;;;;5047926;28;20847;-54
2023/01/11 10:06:03;;;;;;;3.00;2.60;;;9.70;1.00;;;;;;5048988;28;20452;-55
2023/01/11 10:09:10;;;;;;;5.30;3.70;;;9.60;1.00;;;;;;5054728;28;20913;-54
2023/01/11 10:11:48;;;;;;;5.67;3.50;;;9.60;1.00;;;;;;5047219;28;20461;-56
2023/01/11 10:14:37;;;;;;;4.90;3.00;;;9.60;1.00;;;;;;5048465;28;20440;-55
2023/01/11 10:17:19;;;;;;;5.63;3.90;;;9.60;1.00;;;;;;5048014;28;20532;-54
2023/01/11 10:19:51;;;;;;;6.70;4.60;;;9.60;1.00;;;;;;5048192;28;20437;-54
2023/01/11 10:22:30;;;;;;;6.20;4.20;;;9.60;1.00;;;;;;5057162;28;21008;-54
2023/01/11 10:25:09;;;;;;;5.63;4.07;;;9.60;1.00;;;;;;5058988;28;20453;-54
2023/01/11 10:27:39;;;;;;;6.90;3.40;;;9.60;1.00;;;;;;5052074;28;20442;-52
2023/01/11 10:30:34;;;;;;;6.10;4.00;;;9.70;1.00;;;;;;5052394;28;20459;-57
2023/01/11 10:33:33;;;;;;;3.93;3.63;;;9.70;1.00;;;;;;5051826;28;20516;-54
2023/01/11 10:40:30;;;;;;;4.57;3.60;;;9.70;1.00;;;;;;5048887;28;20460;-54
2023/01/11 10:42:18;;;;;;;4.73;3.23;;;9.70;1.00;;;;;;5041994;28;20556;-55
2023/01/11 10:44:51;;;;;;;3.43;3.10;;;9.70;1.00;;;;;;5049614;28;20501;-55
2023/01/11 10:47:22;;;;;;;6.27;3.30;;;9.80;1.00;;;;;;5051451;28;20951;-53
2023/01/11 10:49:57;;;;;;;4.13;3.40;;;9.80;1.00;;;;;;5050818;28;20499;-55
2023/01/11 10:52:32;;;;;;;3.73;2.80;;;9.90;1.00;;;;;;5051628;28;20467;-54
2023/01/11 10:54:59;;;;;;;4.93;3.50;;;9.90;1.00;;;;;;5055634;28;20463;-53
2023/01/11 10:58:01;;;;;;;3.37;3.07;;;9.90;1.00;;;;;;5056896;28;20845;-53
2023/01/11 11:00:50;;;;;;;5.13;2.77;;;9.90;1.00;;;;;;5050208;28;21160;-53
2023/01/11 11:03:34;;;;;;;4.70;3.37;;;9.90;1.00;;;;;;5050198;28;21262;-53
2023/01/11 11:06:05;;;;;;;2.80;2.60;;;10.10;1.00;;;;;;5051670;28;20980;-54
2023/01/11 11:08:57;;;;;;;3.10;2.63;;;10.20;1.00;;;;;;5050928;28;20981;-54
2023/01/11 11:11:55;;;;;;;3.70;2.57;;;10.20;1.00;;;;;;5051642;28;20435;-54
2023/01/11 11:14:38;;;;;;;3.43;3.03;;;10.30;1.00;;;;;;5050461;28;20912;-53
2023/01/11 11:17:24;;;;;;;7.40;3.10;;;10.40;1.00;;;;;;5048954;28;20518;-54
2023/01/11 11:19:50;;;;;;;2.87;2.43;;;10.40;1.00;;;;;;5051028;28;20411;-54
2023/01/11 11:22:17;;;;;;;5.83;3.00;;;10.60;1.00;;;;;;5048498;28;20462;-53
2023/01/11 11:24:49;;;;;;;2.60;2.40;;;10.60;1.00;;;;;;5049622;28;20806;-54
2023/01/11 11:27:39;;;;;;;3.40;2.93;;;10.50;1.00;;;;;;5050692;28;20444;-53
2023/01/11 11:30:10;;;;;;;5.03;3.23;;;10.50;1.00;;;;;;5050191;28;20480;-53
2023/01/11 11:32:38;;;;;;;4.70;4.30;;;10.50;1.00;;;;;;5050036;28;20873;-54
2023/01/11 11:35:06;;;;;;;3.70;3.40;;;10.50;1.00;;;;;;5058330;28;20414;-53
2023/01/11 11:37:42;;;;;;;3.13;2.87;;;10.50;1.00;;;;;;5056191;28;20533;-53
2023/01/11 11:40:29;;;;;;;5.40;3.20;;;10.50;1.00;;;;;;5048883;28;20411;-54
2023/01/11 11:43:18;;;;;;;3.37;3.07;;;10.60;1.00;;;;;;5050067;28;20496;-54
2023/01/11 11:45:53;;;;;;;4.03;2.70;;;10.60;1.00;;;;;;5053689;28;20484;-56
2023/01/11 11:48:19;;;;;;;3.90;3.07;;;10.50;1.00;;;;;;5050437;28;20797;-54
2023/01/11 11:50:46;;;;;;;3.80;3.40;;;10.50;1.00;;;;;;5050504;28;20476;-53
2023/01/11 11:53:33;;;;;;;3.80;3.50;;;10.60;1.00;;;;;;5050058;28;20520;-54
2023/01/11 11:56:05;;;;;;;4.10;2.80;;;10.70;1.00;;;;;;5050344;28;20449;-55
2023/01/11 11:58:31;;;;;;;6.10;4.30;;;10.70;1.00;;;;;;5049926;28;20511;-55
2023/01/11 12:00:57;;;;;;;4.10;3.37;;;10.70;1.00;;;;;;5050487;28;20523;-57
2023/01/11 12:03:31;;;;;;;5.07;3.57;;;10.60;1.00;;;;;;5049973;28;21261;-54
2023/01/11 12:06:03;;;;;;;3.60;3.30;;;10.60;1.00;;;;;;5050202;28;20515;-54
2023/01/11 12:08:31;;;;;;;4.20;3.30;;;10.50;1.00;;;;;;5050143;28;20428;-56
2023/01/11 12:11:02;;;;;;;7.17;3.90;;;10.60;1.00;;;;;;5047899;28;20416;-53
2023/01/11 12:13:34;;;;;;;4.13;3.73;;;10.50;1.00;;;;;;5049986;28;20472;-55
2023/01/11 12:16:03;;;;;;;3.90;3.60;;;10.60;1.00;;;;;;5050021;28;20441;-53
2023/01/11 12:18:42;;;;;;;4.17;3.80;;;10.50;1.00;;;;;;5056902;28;20411;-53
2023/01/11 12:21:15;;;;;;;5.03;3.83;;;10.60;1.00;;;;;;5066979;28;20483;-53
2023/01/11 12:23:41;;;;;;;4.03;3.60;;;10.60;1.00;;;;;;5049588;28;20578;-53
2023/01/11 12:26:20;;;;;;;4.80;4.40;;;10.60;1.00;;;;;;5049544;28;20940;-54
2023/01/11 12:29:10;;;;;;;5.83;4.07;;;10.70;1.00;;;;;;5049221;28;20232;-54
2023/01/11 12:31:38;;;;;;;4.43;4.03;;;10.70;1.00;;;;;;5048192;28;20496;-54
2023/01/11 12:34:26;;;;;;;5.23;4.40;;;10.70;1.00;;;;;;5049371;28;20465;-53
2023/01/11 12:37:12;;;;;;;4.87;4.33;;;10.70;1.00;;;;;;5044402;28;20556;-54
2023/01/11 12:39:52;;;;;;;3.70;3.20;;;10.80;1.00;;;;;;5048143;28;20495;-54
2023/01/11 12:42:50;;;;;;;4.37;3.97;;;10.80;1.00;;;;;;5048716;28;20427;-53
2023/01/11 12:45:35;;;;;;;5.13;4.47;;;10.90;1.00;;;;;;5049377;28;21071;-56
2023/01/11 12:48:16;;;;;;;3.97;3.67;;;10.90;1.00;;;;;;5048959;28;20946;-54
2023/01/11 12:51:03;;;;;;;4.20;3.50;;;11.10;1.00;;;;;;5048489;28;20450;-55
2023/01/11 12:53:43;;;;;;;6.83;3.87;;;11.30;1.00;;;;;;5045722;28;20494;-55
2023/01/11 12:56:40;;;;;;;4.27;3.90;;;11.20;1.00;;;;;;5049848;28;21241;-55
2023/01/11 12:59:16;;;;;;;4.60;3.70;;;11.00;1.00;;;;;;5047156;28;20403;-52
2023/01/11 13:02:05;;;;;;;4.73;4.10;;;10.90;1.00;;;;;;5048917;28;20420;-53
2023/01/11 13:05:00;;;;;;;6.93;4.30;;;10.80;1.00;;;;;;5065679;28;20729;-54
2023/01/11 13:07:46;;;;;;;4.53;4.13;;;10.70;1.00;;;;;;5048556;28;20735;-53
2023/01/11 13:10:22;;;;;;;5.27;4.40;;;10.70;1.00;;;;;;5045633;28;20443;-52
2023/01/11 13:13:17;;;;;;;8.40;4.73;;;10.70;1.00;;;;;;5048991;28;20447;-55
2023/01/11 13:15:50;;;;;;;4.63;4.10;;;10.70;1.00;;;;;;5049165;28;20414;-53
2023/01/11 13:18:28;;;;;;;4.10;3.70;;;10.60;1.00;;;;;;5049166;28;20514;-55
2023/01/11 13:21:33;;;;;;;4.57;4.20;;;10.60;1.00;;;;;;5049429;28;20435;-55
2023/01/11 13:24:07;;;;;;;4.53;4.13;;;10.60;1.00;;;;;;5048659;28;20436;-53
2023/01/11 13:26:43;;;;;;;4.70;3.93;;;10.60;1.00;;;;;;5047677;28;21111;-54
2023/01/11 13:29:14;;;;;;;3.90;3.60;;;10.50;1.00;;;;;;5057724;28;20439;-57
2023/01/11 13:31:42;;;;;;;5.63;3.50;;;10.50;1.00;;;;;;5049325;28;20451;-54
2023/01/11 13:34:36;;;;;;;4.13;3.50;;;10.50;1.00;;;;;;5048783;28;20422;-56
2023/01/11 13:37:24;;;;;;;6.27;3.80;;;10.40;1.00;;;;;;5048177;28;20538;-55
2023/01/11 13:40:00;;;;;;;4.97;3.67;;;10.50;1.00;;;;;;5047739;28;20488;-55
2023/01/11 13:42:39;;;;;;;5.07;3.20;;;10.50;1.00;;;;;;5048024;28;20473;-55
2023/01/11 13:45:22;;;;;;;5.10;3.57;;;10.50;1.00;;;;;;5060377;28;20453;-54
2023/01/11 13:47:52;;;;;;;4.07;3.07;;;10.50;1.00;;;;;;5056607;28;20426;-55
2023/01/11 13:50:24;;;;;;;4.60;3.77;;;10.60;1.00;;;;;;5049097;28;20477;-54
2023/01/11 13:53:18;;;;;;;3.60;3.30;;;10.60;1.00;;;;;;5047628;28;20456;-54
2023/01/11 13:56:07;;;;;;;4.20;3.20;;;10.70;1.00;;;;;;5049085;28;20842;-53